createdAt,value
2023-04-08T00:03:41.152Z,101032.60
2023-04-08T00:08:44.625Z,101038.80
2023-04-08T00:13:47.814Z,101042.00
2023-04-08T00:18:51.693Z,101042.60
2023-04-08T00:23:55.764Z,101043.00
2023-04-08T00:28:59.075Z,101048.00
2023-04-08T00:34:02.488Z,101047.20
2023-04-08T00:39:07.091Z,101049.60
2023-04-08T00:44:10.238Z,101052.00
2023-04-08T00:49:13.354Z,101055.20
2023-04-08T00:54:16.483Z,101061.80
2023-04-08T00:59:19.785Z,101059.60
2023-04-08T01:04:43.565Z,101067.20
2023-04-08T01:09:55.480Z,101070.20
2023-04-08T01:15:06.748Z,101068.20
2023-04-08T01:20:11.639Z,101067.40
2023-04-08T01:25:23.792Z,101072.20
2023-04-08T01:30:30.708Z,101079.40
2023-04-08T01:35:35.848Z,101081.00
2023-04-08T01:40:41.175Z,101080.00
2023-04-08T01:45:47.562Z,101076.80
2023-04-08T01:50:52.246Z,101084.40
2023-04-08T01:56:15.991Z,101087.40
2023-04-08T02:01:23.918Z,101088.60
2023-04-08T02:06:29.544Z,101097.40
2023-04-08T02:11:32.661Z,101102.60
2023-04-08T02:16:38.762Z,101106.60
2023-04-08T02:21:50.929Z,101105.80
2023-04-08T02:26:56.974Z,101105.80
2023-04-08T02:32:04.322Z,101114.20
2023-04-08T02:37:09.547Z,101116.00
2023-04-08T02:42:12.691Z,101117.00
2023-04-08T02:47:15.998Z,101120.00
2023-04-08T02:52:19.908Z,101124.80
2023-04-08T02:57:22.934Z,101131.20
2023-04-08T03:02:26.408Z,101129.40
2023-04-08T03:07:29.653Z,101136.20
2023-04-08T03:12:33.266Z,101138.00
2023-04-08T03:17:36.419Z,101141.60
2023-04-08T03:22:39.618Z,101139.60
2023-04-08T03:27:42.694Z,101148.20
2023-04-08T03:32:46.280Z,101148.00
2023-04-08T03:37:49.926Z,101153.80
2023-04-08T03:42:52.955Z,101158.60
2023-04-08T03:47:56.155Z,101154.40
2023-04-08T03:52:59.251Z,101158.00
2023-04-08T03:58:02.359Z,101171.20
2023-04-08T04:03:05.557Z,101168.00
2023-04-08T04:08:09.793Z,101172.20
2023-04-08T04:13:13.019Z,101174.60
2023-04-08T04:18:16.494Z,101185.40
2023-04-08T04:23:19.635Z,101192.00
2023-04-08T04:28:22.728Z,101197.40
2023-04-08T04:33:25.934Z,101198.20
2023-04-08T04:38:29.077Z,101205.40
2023-04-08T04:43:32.248Z,101208.80
2023-04-08T04:48:36.317Z,101211.80
2023-04-08T04:53:39.282Z,101219.00
2023-04-08T04:58:42.465Z,101220.00
2023-04-08T05:03:45.729Z,101226.80
2023-04-08T05:08:49.210Z,101228.00
2023-04-08T05:13:52.744Z,101226.20
2023-04-08T05:18:56.054Z,101231.00
2023-04-08T05:23:59.261Z,101233.40
2023-04-08T05:29:02.368Z,101233.80
2023-04-08T05:34:05.405Z,101239.80
2023-04-08T05:39:08.505Z,101245.20
2023-04-08T05:44:12.929Z,101247.00
2023-04-08T05:49:17.457Z,101242.20
2023-04-08T05:54:20.695Z,101245.60
2023-04-08T05:59:23.877Z,101249.40
2023-04-08T06:04:27.134Z,101252.00
2023-04-08T06:09:30.588Z,101250.40
2023-04-08T06:14:33.691Z,101257.40
2023-04-08T06:19:36.801Z,101258.20
2023-04-08T06:24:40.315Z,101263.80
2023-04-08T06:29:43.745Z,101269.80
2023-04-08T06:34:46.837Z,101275.60
2023-04-08T06:39:50.257Z,101281.40
2023-04-08T06:44:53.570Z,101289.40
2023-04-08T06:49:57.418Z,101292.20
2023-04-08T06:55:00.498Z,101299.00
2023-04-08T07:00:04.622Z,101309.80
2023-04-08T07:05:08.260Z,101313.40
2023-04-08T07:10:11.659Z,101316.60
2023-04-08T07:15:14.665Z,101318.20
2023-04-08T07:20:18.603Z,101318.60
2023-04-08T07:25:21.924Z,101332.20
2023-04-08T07:30:25.049Z,101340.20
2023-04-08T07:35:28.820Z,101344.80
2023-04-08T07:40:32.142Z,101345.60
2023-04-08T07:45:35.866Z,101341.60
2023-04-08T07:51:08.936Z,101347.00
2023-04-08T07:56:05.676Z,101343.40
2023-04-08T08:01:23.724Z,101338.80
2023-04-08T08:06:27.922Z,101344.80
2023-04-08T08:11:31.548Z,101342.20
2023-04-08T08:16:34.676Z,101347.40
2023-04-08T08:21:39.747Z,101350.20
2023-04-08T08:26:45.361Z,101348.60
2023-04-08T08:31:48.895Z,101344.80
2023-04-08T08:36:53.317Z,101342.80
2023-04-08T08:41:57.149Z,101340.80
2023-04-08T08:47:00.918Z,101336.40
2023-04-08T08:52:04.069Z,101332.00
2023-04-08T08:57:18.924Z,101333.60
2023-04-08T09:02:32.372Z,101338.00
2023-04-08T09:07:40.730Z,101337.40
2023-04-08T09:12:55.982Z,101340.80
2023-04-08T09:17:59.082Z,101334.60
2023-04-08T09:23:03.197Z,101336.00
2023-04-08T09:28:21.355Z,101327.80
2023-04-08T09:33:32.125Z,101328.60
2023-04-08T09:38:35.202Z,101330.40
2023-04-08T09:43:49.608Z,101331.60
2023-04-08T09:49:10.198Z,101332.80
2023-04-08T09:54:19.037Z,101329.80
2023-04-08T09:59:28.265Z,101329.40
2023-04-08T10:04:38.435Z,101334.60
2023-04-08T10:09:43.382Z,101336.80
2023-04-08T10:15:32.095Z,101335.20
2023-04-08T10:20:36.373Z,101334.40
2023-04-08T10:25:48.062Z,101332.20
2023-04-08T10:30:52.863Z,101327.20
2023-04-08T10:36:11.784Z,101319.80
2023-04-08T10:41:24.776Z,101319.40
2023-04-08T10:46:28.416Z,101319.80
2023-04-08T10:51:33.817Z,101314.80
2023-04-08T10:56:53.758Z,101313.40
2023-04-08T11:01:57.607Z,101316.20
2023-04-08T11:07:06.534Z,101313.80
2023-04-08T11:12:09.661Z,101311.60
2023-04-08T11:17:16.529Z,101312.40
2023-04-08T11:22:21.207Z,101312.60
2023-04-08T11:27:26.118Z,101310.00
2023-04-08T11:32:30.339Z,101310.60
2023-04-08T11:37:42.805Z,101303.80
2023-04-08T11:42:47.130Z,101304.00
2023-04-08T11:47:50.558Z,101315.40
2023-04-08T11:52:54.038Z,101314.00
2023-04-08T11:58:04.378Z,101306.60
2023-04-08T12:03:08.419Z,101305.60
2023-04-08T12:08:11.683Z,101310.80
2023-04-08T12:13:14.768Z,101306.40
2023-04-08T12:18:17.806Z,101309.60
2023-04-08T12:23:20.878Z,101303.20
2023-04-08T12:28:24.090Z,101298.60
2023-04-08T12:33:27.701Z,101296.80
2023-04-08T12:38:30.849Z,101289.20
2023-04-08T12:43:34.739Z,101285.40
2023-04-08T12:48:38.004Z,101281.40
2023-04-08T12:53:41.154Z,101277.20
2023-04-08T12:58:44.261Z,101284.40
2023-04-08T13:03:48.372Z,101274.80
2023-04-08T13:08:51.807Z,101273.40
2023-04-08T13:13:55.277Z,101271.80
2023-04-08T13:18:58.434Z,101267.20
2023-04-08T13:24:01.636Z,101265.80
2023-04-08T13:29:04.974Z,101265.40
2023-04-08T13:34:08.390Z,101263.00
2023-04-08T13:39:11.463Z,101260.20
2023-04-08T13:44:15.621Z,101262.60
2023-04-08T13:49:18.705Z,101261.20
2023-04-08T13:54:21.908Z,101255.40
2023-04-08T13:59:25.010Z,101253.60
2023-04-08T14:04:28.230Z,101251.60
2023-04-08T14:09:31.573Z,101248.80
2023-04-08T14:14:34.737Z,101246.80
2023-04-08T14:19:37.845Z,101239.00
2023-04-08T14:24:40.958Z,101238.60
2023-04-08T14:29:44.081Z,101235.00
2023-04-08T14:34:47.781Z,101231.00
2023-04-08T14:39:50.899Z,101229.20
2023-04-08T14:44:53.999Z,101230.00
2023-04-08T14:50:00.192Z,101225.60
2023-04-08T14:55:03.492Z,101223.20
2023-04-08T15:00:10.034Z,101222.80
2023-04-08T15:05:13.075Z,101224.20
2023-04-08T15:10:16.400Z,101219.20
2023-04-08T15:15:19.591Z,101217.60
2023-04-08T15:20:22.908Z,101208.00
2023-04-08T15:25:26.106Z,101209.00
2023-04-08T15:30:35.581Z,101205.80
2023-04-08T15:35:39.510Z,101210.20
2023-04-08T15:40:43.995Z,101207.40
2023-04-08T15:45:48.485Z,101207.20
2023-04-08T15:50:52.470Z,101209.60
2023-04-08T15:55:56.536Z,101205.60
2023-04-08T16:00:59.632Z,101212.20
2023-04-08T16:06:03.253Z,101214.40
2023-04-08T16:11:08.262Z,101213.80
2023-04-08T16:16:12.515Z,101214.20
2023-04-08T16:21:15.754Z,101214.80
2023-04-08T16:26:19.157Z,101215.40
2023-04-08T16:31:22.558Z,101221.60
2023-04-08T16:36:25.900Z,101217.60
2023-04-08T16:41:29.232Z,101224.40
2023-04-08T16:46:32.408Z,101225.20
2023-04-08T16:51:35.841Z,101230.00
2023-04-08T16:56:44.517Z,101236.80
2023-04-08T17:01:48.428Z,101241.20
2023-04-08T17:06:52.512Z,101247.60
2023-04-08T17:11:56.891Z,101249.80
2023-04-08T17:17:00.153Z,101254.80
2023-04-08T17:22:03.265Z,101256.00
2023-04-08T17:27:06.364Z,101265.20
2023-04-08T17:32:09.805Z,101266.80
2023-04-08T17:37:13.098Z,101271.00
2023-04-08T17:42:17.161Z,101277.20
2023-04-08T17:47:21.249Z,101279.80
2023-04-08T17:52:24.394Z,101282.20
2023-04-08T17:57:27.467Z,101292.00
2023-04-08T18:02:31.110Z,101300.00
2023-04-08T18:07:36.301Z,101303.80
2023-04-08T18:12:39.442Z,101309.20
2023-04-08T18:17:45.142Z,101315.00
2023-04-08T18:22:51.184Z,101318.00
2023-04-08T18:27:54.295Z,101314.80
2023-04-08T18:32:57.599Z,101320.60
2023-04-08T18:38:01.031Z,101321.60
2023-04-08T18:43:05.178Z,101325.60
2023-04-08T18:48:08.872Z,101331.00
2023-04-08T18:53:12.621Z,101328.00
2023-04-08T18:58:15.799Z,101332.60
2023-04-08T19:03:19.476Z,101339.40
2023-04-08T19:08:22.946Z,101347.00
2023-04-08T19:13:26.367Z,101344.40
2023-04-08T19:18:29.447Z,101342.60
2023-04-08T19:23:32.669Z,101341.60
2023-04-08T19:28:36.474Z,101341.00
2023-04-08T19:33:39.585Z,101338.60
2023-04-08T19:38:42.826Z,101342.40
2023-04-08T19:43:47.232Z,101341.00
2023-04-08T19:48:50.455Z,101343.80
2023-04-08T19:53:53.959Z,101345.80
2023-04-08T19:58:57.777Z,101337.00
2023-04-08T20:04:01.039Z,101341.20
2023-04-08T20:09:05.869Z,101338.00
2023-04-08T20:14:09.153Z,101340.80
2023-04-08T20:19:12.187Z,101330.40
2023-04-08T20:24:16.589Z,101340.00
2023-04-08T20:29:20.022Z,101341.20
2023-04-08T20:34:23.231Z,101342.60
2023-04-08T20:39:31.133Z,101342.20
2023-04-08T20:44:34.261Z,101337.00
2023-04-08T20:49:41.239Z,101336.80
2023-04-08T20:54:44.349Z,101336.60
2023-04-08T20:59:47.583Z,101342.60
2023-04-08T21:04:50.662Z,101342.20
2023-04-08T21:09:53.870Z,101339.20
2023-04-08T21:14:57.071Z,101339.40
2023-04-08T21:20:00.512Z,101338.00
2023-04-08T21:25:04.633Z,101341.20
2023-04-08T21:30:08.730Z,101337.00
2023-04-08T21:35:11.898Z,101339.60
2023-04-08T21:40:15.167Z,101338.40
2023-04-08T21:45:19.393Z,101338.00
2023-04-08T21:50:22.505Z,101333.40
2023-04-08T21:55:26.040Z,101338.00
2023-04-08T22:00:30.343Z,101330.80
2023-04-08T22:05:34.010Z,101329.20
2023-04-08T22:10:38.000Z,101327.40
2023-04-08T22:15:41.430Z,101321.40
2023-04-08T22:20:44.642Z,101311.60
2023-04-08T22:25:51.954Z,101315.20
2023-04-08T22:30:55.202Z,101308.40
2023-04-08T22:35:58.481Z,101309.40
2023-04-08T22:41:01.866Z,101305.40
2023-04-08T22:46:05.013Z,101309.60
2023-04-08T22:51:08.737Z,101313.60
2023-04-08T22:56:11.910Z,101320.00
2023-04-08T23:01:18.014Z,101318.80
2023-04-08T23:06:21.387Z,101318.00
2023-04-08T23:11:24.505Z,101315.60
2023-04-08T23:16:27.671Z,101311.80
2023-04-08T23:21:31.460Z,101307.80
2023-04-08T23:26:34.736Z,101313.00
2023-04-08T23:31:37.808Z,101317.80
2023-04-08T23:36:41.257Z,101316.00
2023-04-08T23:41:44.385Z,101312.80
2023-04-08T23:46:47.701Z,101309.60
2023-04-08T23:51:50.890Z,101308.80
2023-04-08T23:56:53.988Z,101305.00
